Travesseiro, Brazil
Current Conditions -  °F | °C
As of 11:00 AM on Saturday 01 Nov 2014 (Local Time) from SBCO Reporting Station
Overcast Overcast  
Wind Chill: 75°   Ceiling: 2000
Heat Index: 75°   Visibility: 6mi
Dew Point: 68°   Wind: 9mph
Humidity: 78%   Direction: 150°SSE
Pressure: 30"   Gusts: NA
Location:  29.29°S, 52.06°W
Report Text: SBCO 011300Z 15008KT 9999 OVC020 24/20 Q1016
Loading
Personal Weather Stations






























Interactive Weather Map
Tropical Storm Tracking
New forecast layout! Learn more

10-Day Weather Forecast

Advertisements
Track Severe Weather on mobile